createdAt,value
2022-08-07T00:02:36.495Z,60.69
2022-08-07T00:04:58.162Z,61.49
2022-08-07T00:07:24.723Z,61.30
2022-08-07T00:10:19.303Z,61.57
2022-08-07T00:12:57.692Z,61.36
2022-08-07T00:15:37.906Z,61.77
2022-08-07T00:18:19.676Z,60.88
2022-08-07T00:20:49.591Z,60.79
2022-08-07T00:23:17.072Z,60.50
2022-08-07T00:25:51.740Z,60.59
2022-08-07T00:28:33.491Z,61.20
2022-08-07T00:31:01.412Z,62.37
2022-08-07T00:33:32.963Z,62.38
2022-08-07T00:36:00.297Z,63.02
2022-08-07T00:38:31.338Z,63.00
2022-08-07T00:40:59.318Z,62.34
2022-08-07T00:44:00.388Z,61.53
2022-08-07T00:46:13.056Z,61.21
2022-08-07T00:48:42.164Z,61.49
2022-08-07T00:51:10.440Z,61.67
2022-08-07T00:53:39.261Z,61.30
2022-08-07T00:56:18.541Z,61.97
2022-08-07T00:58:47.095Z,62.46
2022-08-07T01:01:17.699Z,62.42
2022-08-07T01:03:55.393Z,62.83
2022-08-07T01:06:24.350Z,63.23
2022-08-07T01:08:53.600Z,63.49
2022-08-07T01:12:23.405Z,63.52
2022-08-07T01:14:09.368Z,63.70
2022-08-07T01:16:36.954Z,63.75
2022-08-07T01:19:10.811Z,64.04
2022-08-07T01:21:48.193Z,64.37
2022-08-07T01:24:21.247Z,65.33
2022-08-07T01:26:52.207Z,66.69
2022-08-07T01:29:21.955Z,68.62
2022-08-07T01:31:49.582Z,69.59
2022-08-07T01:34:18.626Z,72.27
2022-08-07T01:36:52.559Z,73.16
2022-08-07T01:39:26.799Z,73.07
2022-08-07T01:42:36.983Z,73.59
2022-08-07T01:44:53.811Z,73.82
2022-08-07T01:48:20.416Z,74.41
2022-08-07T01:50:08.763Z,74.63
2022-08-07T01:52:40.859Z,74.87
2022-08-07T01:55:22.204Z,75.29
2022-08-07T01:58:05.901Z,75.20
2022-08-07T02:00:45.475Z,74.87
2022-08-07T02:03:26.308Z,73.85
2022-08-07T02:06:30.615Z,73.81
2022-08-07T02:08:55.541Z,73.88
2022-08-07T02:11:30.827Z,74.00
2022-08-07T02:14:10.579Z,73.79
2022-08-07T02:16:58.343Z,73.76
2022-08-07T02:20:06.918Z,73.66
2022-08-07T02:22:14.347Z,74.28
2022-08-07T02:24:46.428Z,73.82
2022-08-07T02:27:18.545Z,73.99
2022-08-07T02:29:54.165Z,73.98
2022-08-07T02:32:23.482Z,73.57
2022-08-07T02:34:56.179Z,73.79
2022-08-07T02:37:26.267Z,74.27
2022-08-07T02:40:02.119Z,73.81
2022-08-07T02:42:41.799Z,73.52
2022-08-07T02:46:02.196Z,72.48
2022-08-07T02:47:59.169Z,72.35
2022-08-07T02:50:30.856Z,72.34
2022-08-07T02:53:06.222Z,72.54
2022-08-07T02:56:02.353Z,72.49
2022-08-07T02:58:27.213Z,72.37
2022-08-07T03:00:57.316Z,72.44
2022-08-07T03:03:42.291Z,72.47
2022-08-07T03:06:16.597Z,73.54
2022-08-07T03:08:52.495Z,73.42
2022-08-07T03:11:20.267Z,73.72
2022-08-07T03:13:57.584Z,73.77
2022-08-07T03:16:30.376Z,73.60
2022-08-07T03:18:59.225Z,73.65
2022-08-07T03:21:27.518Z,72.94
2022-08-07T03:24:19.218Z,72.73
2022-08-07T03:26:58.143Z,72.23
2022-08-07T03:29:29.416Z,70.97
2022-08-07T03:31:56.729Z,71.14
2022-08-07T03:34:27.439Z,71.77
2022-08-07T03:36:57.327Z,71.54
2022-08-07T03:39:46.582Z,71.99
2022-08-07T03:42:14.230Z,72.49
2022-08-07T03:44:41.532Z,73.02
2022-08-07T03:47:13.638Z,72.99
2022-08-07T03:49:52.037Z,73.36
2022-08-07T03:52:22.942Z,72.34
2022-08-07T03:54:54.993Z,72.79
2022-08-07T03:58:34.194Z,72.29
2022-08-07T04:00:14.764Z,72.69
2022-08-07T04:02:47.253Z,73.21
2022-08-07T04:05:14.407Z,73.74
2022-08-07T04:07:47.653Z,73.75
2022-08-07T04:10:15.674Z,73.65
2022-08-07T04:12:47.239Z,73.34
2022-08-07T04:15:15.897Z,72.87
2022-08-07T04:18:31.410Z,72.55
2022-08-07T04:20:31.323Z,72.31
2022-08-07T04:23:06.636Z,72.74
2022-08-07T04:25:35.864Z,72.82
2022-08-07T04:28:08.078Z,71.87
2022-08-07T04:30:43.333Z,71.82
2022-08-07T04:33:13.981Z,72.28
2022-08-07T04:35:51.289Z,72.61
2022-08-07T04:38:20.816Z,72.27
2022-08-07T04:40:51.941Z,72.36
2022-08-07T04:43:22.331Z,72.52
2022-08-07T04:46:20.116Z,72.74
2022-08-07T04:49:24.726Z,73.29
2022-08-07T04:52:14.376Z,73.43
2022-08-07T04:55:00.193Z,73.95
2022-08-07T04:58:14.865Z,73.62
2022-08-07T05:00:42.926Z,74.11
2022-08-07T05:03:59.619Z,73.34
2022-08-07T05:06:43.242Z,73.52
2022-08-07T05:09:42.965Z,73.50
2022-08-07T05:12:09.505Z,73.24
2022-08-07T05:14:55.035Z,73.19
2022-08-07T05:17:51.990Z,72.04
2022-08-07T05:20:23.902Z,72.24
2022-08-07T05:22:52.999Z,72.01
2022-08-07T05:25:25.697Z,71.27
2022-08-07T05:28:20.997Z,71.51
2022-08-07T05:30:52.133Z,70.59
2022-08-07T05:33:20.812Z,69.87
2022-08-07T05:35:50.680Z,68.87
2022-08-07T05:39:01.140Z,69.19
2022-08-07T05:41:12.261Z,69.04
2022-08-07T05:44:07.635Z,68.68
2022-08-07T05:46:37.625Z,68.37
2022-08-07T05:49:12.078Z,67.18
2022-08-07T05:51:42.284Z,66.59
2022-08-07T05:54:19.526Z,65.40
2022-08-07T05:56:57.260Z,65.39
2022-08-07T05:59:26.313Z,64.88
2022-08-07T06:01:55.807Z,64.39
2022-08-07T06:04:30.028Z,62.92
2022-08-07T06:07:03.745Z,61.92
2022-08-07T06:10:04.676Z,61.17
2022-08-07T06:12:21.129Z,59.96
2022-08-07T06:15:05.187Z,59.93
2022-08-07T06:17:38.073Z,59.56
2022-08-07T06:20:12.529Z,59.96
2022-08-07T06:23:02.482Z,60.29
2022-08-07T06:25:40.947Z,57.11
2022-08-07T06:28:27.395Z,56.95
2022-08-07T06:30:55.671Z,56.93
2022-08-07T06:33:24.300Z,55.52
2022-08-07T06:36:11.712Z,57.14
2022-08-07T06:38:38.075Z,55.98
2022-08-07T06:41:15.909Z,54.72
2022-08-07T06:44:01.282Z,54.87
2022-08-07T06:46:35.460Z,54.17
2022-08-07T06:49:03.826Z,55.81
2022-08-07T06:51:33.951Z,54.36
2022-08-07T06:55:28.647Z,55.39
2022-08-07T06:56:51.625Z,55.35
2022-08-07T07:00:13.579Z,54.01
2022-08-07T07:02:48.231Z,54.63
2022-08-07T07:05:06.663Z,54.27
2022-08-07T07:08:00.216Z,54.72
2022-08-07T07:10:31.352Z,54.88
2022-08-07T07:13:05.327Z,55.57
2022-08-07T07:15:43.277Z,55.13
2022-08-07T07:18:09.920Z,53.21
2022-08-07T07:20:55.890Z,52.46
2022-08-07T07:24:10.799Z,51.12
2022-08-07T07:26:33.531Z,51.92
2022-08-07T07:29:56.364Z,51.67
2022-08-07T07:31:59.238Z,50.69
2022-08-07T07:34:32.019Z,49.47
2022-08-07T07:37:05.387Z,49.13
2022-08-07T07:39:52.487Z,49.26
2022-08-07T07:42:32.398Z,47.37
2022-08-07T07:45:02.257Z,47.59
2022-08-07T07:47:30.262Z,46.22
2022-08-07T07:50:36.531Z,46.40
2022-08-07T07:53:20.594Z,47.08
2022-08-07T07:55:57.439Z,44.50
2022-08-07T07:58:29.323Z,43.31
2022-08-07T08:00:58.808Z,44.82
2022-08-07T08:04:09.487Z,44.09
2022-08-07T08:06:14.979Z,43.68
2022-08-07T08:08:44.254Z,41.74
2022-08-07T08:11:16.237Z,41.04
2022-08-07T08:13:54.704Z,42.62
2022-08-07T08:16:29.824Z,41.19
2022-08-07T08:18:58.206Z,42.03
2022-08-07T08:21:55.716Z,41.31
2022-08-07T08:24:59.282Z,41.31
2022-08-07T08:27:56.262Z,41.84
2022-08-07T08:30:25.765Z,40.86
2022-08-07T08:32:59.627Z,40.95
2022-08-07T08:35:39.645Z,41.73
2022-08-07T08:38:16.788Z,39.69
2022-08-07T08:40:54.808Z,39.99
2022-08-07T08:43:42.209Z,39.19
2022-08-07T08:46:38.179Z,38.21
2022-08-07T08:49:33.337Z,36.63
2022-08-07T08:52:14.121Z,37.42
2022-08-07T08:55:10.047Z,38.33
2022-08-07T08:57:58.960Z,37.85
2022-08-07T09:00:30.297Z,36.38
2022-08-07T09:03:49.474Z,36.83
2022-08-07T09:06:32.752Z,36.92
2022-08-07T09:09:36.437Z,36.63
2022-08-07T09:12:30.762Z,35.53
2022-08-07T09:16:21.700Z,35.00
2022-08-07T09:18:41.620Z,35.61
2022-08-07T09:21:34.395Z,34.96
2022-08-07T09:24:55.332Z,36.06
2022-08-07T09:28:00.052Z,34.56
2022-08-07T09:30:41.793Z,35.46
2022-08-07T09:33:41.060Z,35.59
2022-08-07T09:36:22.282Z,34.72
2022-08-07T09:39:11.315Z,36.03
2022-08-07T09:42:03.079Z,37.01
2022-08-07T09:47:27.432Z,37.94
2022-08-07T09:48:01.523Z,37.23
2022-08-07T09:50:54.293Z,36.29
2022-08-07T09:53:24.540Z,35.55
2022-08-07T09:56:43.248Z,37.28
2022-08-07T10:00:00.570Z,36.75
2022-08-07T10:04:06.247Z,36.65
2022-08-07T10:06:24.374Z,36.87
2022-08-07T10:09:15.926Z,36.49
2022-08-07T10:12:37.985Z,36.92
2022-08-07T10:16:03.429Z,36.94
2022-08-07T10:19:11.600Z,36.63
2022-08-07T10:22:15.647Z,37.67
2022-08-07T10:24:57.435Z,36.40
2022-08-07T10:27:46.334Z,37.11
2022-08-07T10:30:18.584Z,37.28
2022-08-07T10:33:00.281Z,36.19
2022-08-07T10:36:13.781Z,33.99
2022-08-07T10:38:53.202Z,34.59
2022-08-07T10:41:52.272Z,33.56
2022-08-07T10:44:45.154Z,33.73
2022-08-07T10:47:14.157Z,34.31
2022-08-07T10:49:50.956Z,33.08
2022-08-07T10:52:36.974Z,32.01
2022-08-07T10:55:26.802Z,32.24
2022-08-07T10:58:32.034Z,33.09
2022-08-07T11:01:51.563Z,32.17
2022-08-07T11:04:43.246Z,32.34
2022-08-07T11:07:59.366Z,31.91
2022-08-07T11:11:00.135Z,31.14
2022-08-07T11:14:45.907Z,32.27
2022-08-07T11:16:29.721Z,31.62
2022-08-07T11:19:09.999Z,30.61
2022-08-07T11:21:40.792Z,30.81
2022-08-07T11:24:20.591Z,30.26
2022-08-07T11:26:55.877Z,31.41
2022-08-07T11:30:18.657Z,31.20
2022-08-07T11:33:14.968Z,31.00
2022-08-07T11:35:59.121Z,30.26
2022-08-07T11:39:09.218Z,30.19
2022-08-07T11:42:00.011Z,29.69
2022-08-07T11:45:03.650Z,30.31
2022-08-07T11:47:59.021Z,29.76
2022-08-07T11:51:40.806Z,29.78
2022-08-07T11:54:33.396Z,29.76
2022-08-07T11:57:19.115Z,29.96
2022-08-07T12:00:12.183Z,30.03
2022-08-07T12:02:52.710Z,29.11
2022-08-07T12:05:58.401Z,29.69
2022-08-07T12:08:50.227Z,30.63
2022-08-07T12:11:35.223Z,30.84
2022-08-07T12:14:24.567Z,30.44
2022-08-07T12:17:30.194Z,31.74
2022-08-07T12:20:08.837Z,31.81
2022-08-07T12:23:17.910Z,32.31
2022-08-07T12:26:22.363Z,32.48
2022-08-07T12:29:38.358Z,31.73
2022-08-07T12:32:18.333Z,33.06
2022-08-07T12:34:49.417Z,31.41
2022-08-07T12:37:27.851Z,31.99
2022-08-07T12:40:30.013Z,31.77
2022-08-07T12:43:00.928Z,31.37
2022-08-07T12:45:45.790Z,29.86
2022-08-07T12:48:27.707Z,30.68
2022-08-07T12:51:17.547Z,31.02
2022-08-07T12:54:24.279Z,31.37
2022-08-07T12:56:51.034Z,31.01
2022-08-07T12:59:33.233Z,31.84
2022-08-07T13:02:40.035Z,30.30
2022-08-07T13:06:03.703Z,30.86
2022-08-07T13:08:41.380Z,30.63
2022-08-07T13:11:30.783Z,29.96
2022-08-07T13:15:00.646Z,28.62
2022-08-07T13:17:40.892Z,29.06
2022-08-07T13:20:40.132Z,29.96
2022-08-07T13:24:00.737Z,29.34
2022-08-07T13:26:26.499Z,30.11
2022-08-07T13:29:09.438Z,30.65
2022-08-07T13:31:55.353Z,31.69
2022-08-07T13:34:51.252Z,30.53
2022-08-07T13:37:29.911Z,30.85
2022-08-07T13:40:41.735Z,31.94
2022-08-07T13:42:57.016Z,31.65
2022-08-07T13:46:10.905Z,30.94
2022-08-07T13:48:27.696Z,29.73
2022-08-07T13:51:02.150Z,30.41
2022-08-07T13:54:00.477Z,29.39
2022-08-07T13:56:35.025Z,29.54
2022-08-07T13:59:12.273Z,29.45
2022-08-07T14:01:51.495Z,29.96
2022-08-07T14:04:35.718Z,29.13
2022-08-07T14:07:09.392Z,28.69
2022-08-07T14:10:12.096Z,28.92
2022-08-07T14:12:36.267Z,28.56
2022-08-07T14:15:18.669Z,29.14
2022-08-07T14:18:15.859Z,29.16
2022-08-07T14:20:39.896Z,28.42
2022-08-07T14:23:59.347Z,28.31
2022-08-07T14:26:28.118Z,27.79
2022-08-07T14:29:04.438Z,28.89
2022-08-07T14:31:43.240Z,28.09
2022-08-07T14:34:29.716Z,28.17
2022-08-07T14:40:16.042Z,27.99
2022-08-07T14:43:01.454Z,27.29
2022-08-07T14:48:20.099Z,27.99
2022-08-07T14:50:56.377Z,27.44
2022-08-07T14:54:05.959Z,27.81
2022-08-07T14:56:15.708Z,27.74
2022-08-07T14:59:02.061Z,26.26
2022-08-07T15:01:42.918Z,25.06
2022-08-07T15:04:19.537Z,24.94
2022-08-07T15:06:50.083Z,23.91
2022-08-07T15:09:47.116Z,23.13
2022-08-07T15:12:10.996Z,23.60
2022-08-07T15:14:58.108Z,23.65
2022-08-07T15:17:54.541Z,22.21
2022-08-07T15:23:20.892Z,21.78
2022-08-07T15:25:58.582Z,22.16
2022-08-07T15:28:34.909Z,22.89
2022-08-07T15:31:09.724Z,23.93
2022-08-07T15:33:42.571Z,24.60
2022-08-07T15:36:10.381Z,25.06
2022-08-07T15:38:58.729Z,25.23
2022-08-07T15:42:45.296Z,24.23
2022-08-07T15:44:23.498Z,23.48
2022-08-07T15:47:08.984Z,22.87
2022-08-07T15:50:04.378Z,22.96
2022-08-07T15:52:36.575Z,22.91
2022-08-07T15:55:08.969Z,24.33
2022-08-07T15:57:48.690Z,24.58
2022-08-07T16:00:31.418Z,25.57
2022-08-07T16:03:21.447Z,26.21
2022-08-07T16:05:57.478Z,26.89
2022-08-07T16:08:32.056Z,28.34
2022-08-07T16:11:27.154Z,28.86
2022-08-07T16:14:12.819Z,29.28
2022-08-07T16:17:15.932Z,30.35
2022-08-07T16:19:59.608Z,30.76
2022-08-07T16:22:33.732Z,30.24
2022-08-07T16:25:23.478Z,31.14
2022-08-07T16:29:18.295Z,31.24
2022-08-07T16:31:50.727Z,31.40
2022-08-07T16:34:30.479Z,30.82
2022-08-07T16:37:02.737Z,30.94
2022-08-07T16:39:58.005Z,30.91
2022-08-07T16:42:45.663Z,31.17
2022-08-07T16:46:33.433Z,31.66
2022-08-07T16:50:27.096Z,31.82
2022-08-07T16:52:50.926Z,32.18
2022-08-07T16:55:25.295Z,34.01
2022-08-07T16:58:33.679Z,32.24
2022-08-07T17:01:15.960Z,31.80
2022-08-07T17:03:59.864Z,32.31
2022-08-07T17:06:39.847Z,31.79
2022-08-07T17:10:06.939Z,31.95
2022-08-07T17:12:53.193Z,33.01
2022-08-07T17:15:50.586Z,32.52
2022-08-07T17:18:28.310Z,32.92
2022-08-07T17:20:55.856Z,32.68
2022-08-07T17:23:32.304Z,32.49
2022-08-07T17:26:05.975Z,32.38
2022-08-07T17:30:12.743Z,32.54
2022-08-07T17:32:35.530Z,32.96
2022-08-07T17:35:55.346Z,32.70
2022-08-07T17:38:44.512Z,33.36
2022-08-07T17:42:04.913Z,33.38
2022-08-07T17:44:42.828Z,33.86
2022-08-07T17:47:38.404Z,33.61
2022-08-07T17:50:19.429Z,32.49
2022-08-07T17:53:59.468Z,33.48
2022-08-07T17:56:09.296Z,33.61
2022-08-07T17:58:56.858Z,33.36
2022-08-07T18:01:36.655Z,34.36
2022-08-07T18:04:42.102Z,34.68
2022-08-07T18:07:36.691Z,34.69
2022-08-07T18:10:32.662Z,34.81
2022-08-07T18:12:59.770Z,35.42
2022-08-07T18:15:33.078Z,35.29
2022-08-07T18:18:47.225Z,35.14
2022-08-07T18:21:42.091Z,34.81
2022-08-07T18:24:33.625Z,35.03
2022-08-07T18:27:20.942Z,35.02
2022-08-07T18:30:06.591Z,35.42
2022-08-07T18:33:25.778Z,35.51
2022-08-07T18:35:55.780Z,35.89
2022-08-07T18:38:55.880Z,35.97
2022-08-07T18:41:45.796Z,36.61
2022-08-07T18:44:22.393Z,36.74
2022-08-07T18:47:20.960Z,37.40
2022-08-07T18:50:32.340Z,37.46
2022-08-07T18:53:16.322Z,37.72
2022-08-07T18:56:16.433Z,38.18
2022-08-07T18:58:43.099Z,38.06
2022-08-07T19:02:18.068Z,37.86
2022-08-07T19:05:10.441Z,37.81
2022-08-07T19:07:59.640Z,38.49
2022-08-07T19:10:51.486Z,38.56
2022-08-07T19:13:46.237Z,38.56
2022-08-07T19:17:00.586Z,39.21
2022-08-07T19:19:47.478Z,39.56
2022-08-07T19:22:31.166Z,38.84
2022-08-07T19:25:06.247Z,39.04
2022-08-07T19:28:56.432Z,39.04
2022-08-07T19:31:06.122Z,39.72
2022-08-07T19:33:20.231Z,39.95
2022-08-07T19:36:03.090Z,39.36
2022-08-07T19:38:34.026Z,39.87
2022-08-07T19:41:02.000Z,40.50
2022-08-07T19:43:45.703Z,40.96
2022-08-07T19:46:26.384Z,41.95
2022-08-07T19:49:57.142Z,42.66
2022-08-07T19:52:28.265Z,42.67
2022-08-07T19:54:57.421Z,42.69
2022-08-07T19:58:00.975Z,43.79
2022-08-07T20:00:29.347Z,43.31
2022-08-07T20:03:02.218Z,43.19
2022-08-07T20:05:59.536Z,44.01
2022-08-07T20:08:30.245Z,43.46
2022-08-07T20:11:01.879Z,43.69
2022-08-07T20:13:47.539Z,44.23
2022-08-07T20:16:34.800Z,43.68
2022-08-07T20:19:06.141Z,44.34
2022-08-07T20:21:46.560Z,44.09
2022-08-07T20:24:31.532Z,44.87
2022-08-07T20:27:11.784Z,43.94
2022-08-07T20:29:57.438Z,44.58
2022-08-07T20:32:39.763Z,44.49
2022-08-07T20:35:16.085Z,44.47
2022-08-07T20:37:55.849Z,44.72
2022-08-07T20:40:32.762Z,44.72
2022-08-07T20:43:02.857Z,44.89
2022-08-07T20:46:26.612Z,45.35
2022-08-07T20:48:28.282Z,45.78
2022-08-07T20:50:57.605Z,45.48
2022-08-07T20:54:02.243Z,45.82
2022-08-07T20:56:12.281Z,45.78
2022-08-07T20:58:48.050Z,46.16
2022-08-07T21:01:21.900Z,46.24
2022-08-07T21:04:13.371Z,46.45
2022-08-07T21:06:46.563Z,46.21
2022-08-07T21:09:24.341Z,46.23
2022-08-07T21:11:55.715Z,46.56
2022-08-07T21:14:34.053Z,46.67
2022-08-07T21:18:01.245Z,47.40
2022-08-07T21:20:00.874Z,47.57
2022-08-07T21:22:39.226Z,47.67
2022-08-07T21:25:20.199Z,47.89
2022-08-07T21:28:16.642Z,48.46
2022-08-07T21:30:51.528Z,49.20
2022-08-07T21:33:47.079Z,49.34
2022-08-07T21:36:31.621Z,49.39
2022-08-07T21:39:01.799Z,49.42
2022-08-07T21:42:01.351Z,49.83
2022-08-07T21:44:51.158Z,50.43
2022-08-07T21:47:39.640Z,49.82
2022-08-07T21:50:27.648Z,49.46
2022-08-07T21:53:07.689Z,48.62
2022-08-07T21:55:57.232Z,49.37
2022-08-07T21:58:53.800Z,50.11
2022-08-07T22:02:07.300Z,50.08
2022-08-07T22:04:24.980Z,50.33
2022-08-07T22:07:09.033Z,50.87
2022-08-07T22:09:54.228Z,51.06
2022-08-07T22:12:27.217Z,50.73
2022-08-07T22:15:04.012Z,51.04
2022-08-07T22:17:57.766Z,51.57
2022-08-07T22:20:37.166Z,51.68
2022-08-07T22:23:17.625Z,51.82
2022-08-07T22:26:06.622Z,52.04
2022-08-07T22:29:03.803Z,52.07
2022-08-07T22:31:58.972Z,51.82
2022-08-07T22:34:35.996Z,52.29
2022-08-07T22:37:17.968Z,52.26
2022-08-07T22:39:58.963Z,52.35
2022-08-07T22:42:53.987Z,52.07
2022-08-07T22:46:04.115Z,52.38
2022-08-07T22:48:55.345Z,52.39
2022-08-07T22:51:43.519Z,52.17
2022-08-07T22:54:39.684Z,52.40
2022-08-07T22:57:44.905Z,52.53
2022-08-07T23:00:12.438Z,52.80
2022-08-07T23:03:00.526Z,52.76
2022-08-07T23:06:08.527Z,52.76
2022-08-07T23:10:00.681Z,52.87
2022-08-07T23:12:07.475Z,53.65
2022-08-07T23:15:01.252Z,53.97
2022-08-07T23:17:59.391Z,53.44
2022-08-07T23:20:56.628Z,54.62
2022-08-07T23:24:05.679Z,54.37
2022-08-07T23:27:02.839Z,54.66
2022-08-07T23:30:36.916Z,55.25
2022-08-07T23:34:23.129Z,55.37
2022-08-07T23:36:43.268Z,55.25
2022-08-07T23:39:17.882Z,55.46
2022-08-07T23:42:24.358Z,55.62
2022-08-07T23:46:02.481Z,55.92
2022-08-07T23:48:40.988Z,55.99
2022-08-07T23:53:05.538Z,55.88
2022-08-07T23:54:44.178Z,56.36
2022-08-07T23:57:36.331Z,56.26
